sensor_id;sensor_type;location;lat;lon;timestamp;P1;durP1;ratioP1;P2;durP2;ratioP2
24273;SDS011;12392;42.678;23.380;2023-07-30T00:01:12;5.63;;;2.70;;
24273;SDS011;12392;42.678;23.380;2023-07-30T00:03:37;2.67;;;2.25;;
24273;SDS011;12392;42.678;23.380;2023-07-30T00:06:03;2.83;;;2.42;;
24273;SDS011;12392;42.678;23.380;2023-07-30T00:08:29;4.18;;;2.15;;
24273;SDS011;12392;42.678;23.380;2023-07-30T00:10:57;2.80;;;2.47;;
24273;SDS011;12392;42.678;23.380;2023-07-30T00:13:23;7.20;;;2.45;;
24273;SDS011;12392;42.678;23.380;2023-07-30T00:15:50;4.05;;;2.20;;
24273;SDS011;12392;42.678;23.380;2023-07-30T00:18:15;5.18;;;2.55;;
24273;SDS011;12392;42.678;23.380;2023-07-30T00:20:42;4.07;;;2.67;;
24273;SDS011;12392;42.678;23.380;2023-07-30T00:23:07;4.72;;;2.72;;
24273;SDS011;12392;42.678;23.380;2023-07-30T00:25:33;6.55;;;3.10;;
24273;SDS011;12392;42.678;23.380;2023-07-30T00:27:59;4.63;;;2.72;;
24273;SDS011;12392;42.678;23.380;2023-07-30T00:30:24;7.60;;;2.88;;
24273;SDS011;12392;42.678;23.380;2023-07-30T00:32:50;6.40;;;2.60;;
24273;SDS011;12392;42.678;23.380;2023-07-30T00:35:16;6.35;;;2.80;;
24273;SDS011;12392;42.678;23.380;2023-07-30T00:37:41;7.68;;;2.55;;
24273;SDS011;12392;42.678;23.380;2023-07-30T00:40:07;6.63;;;2.63;;
24273;SDS011;12392;42.678;23.380;2023-07-30T00:42:33;8.23;;;2.80;;
24273;SDS011;12392;42.678;23.380;2023-07-30T00:44:59;7.70;;;3.33;;
24273;SDS011;12392;42.678;23.380;2023-07-30T00:47:24;3.50;;;2.55;;
24273;SDS011;12392;42.678;23.380;2023-07-30T00:49:51;8.35;;;2.40;;
24273;SDS011;12392;42.678;23.380;2023-07-30T00:52:17;4.05;;;2.78;;
24273;SDS011;12392;42.678;23.380;2023-07-30T00:54:44;6.07;;;2.90;;
24273;SDS011;12392;42.678;23.380;2023-07-30T00:57:10;4.43;;;2.85;;
24273;SDS011;12392;42.678;23.380;2023-07-30T00:59:36;5.50;;;2.72;;
24273;SDS011;12392;42.678;23.380;2023-07-30T01:02:02;8.77;;;2.65;;
24273;SDS011;12392;42.678;23.380;2023-07-30T01:04:28;4.20;;;2.67;;
24273;SDS011;12392;42.678;23.380;2023-07-30T01:06:54;6.32;;;2.83;;
24273;SDS011;12392;42.678;23.380;2023-07-30T01:09:19;3.53;;;2.70;;
24273;SDS011;12392;42.678;23.380;2023-07-30T01:11:46;5.68;;;2.85;;
24273;SDS011;12392;42.678;23.380;2023-07-30T01:14:11;5.38;;;2.90;;
24273;SDS011;12392;42.678;23.380;2023-07-30T01:16:39;8.27;;;2.70;;
24273;SDS011;12392;42.678;23.380;2023-07-30T01:19:05;6.22;;;3.22;;
24273;SDS011;12392;42.678;23.380;2023-07-30T01:21:34;7.30;;;3.05;;
24273;SDS011;12392;42.678;23.380;2023-07-30T01:24:00;4.13;;;2.88;;
24273;SDS011;12392;42.678;23.380;2023-07-30T01:26:40;8.15;;;2.70;;
24273;SDS011;12392;42.678;23.380;2023-07-30T01:29:14;4.78;;;2.92;;
24273;SDS011;12392;42.678;23.380;2023-07-30T01:34:22;5.75;;;3.03;;
24273;SDS011;12392;42.678;23.380;2023-07-30T01:36:49;6.72;;;2.90;;
24273;SDS011;12392;42.678;23.380;2023-07-30T01:39:15;6.35;;;2.90;;
24273;SDS011;12392;42.678;23.380;2023-07-30T01:41:41;5.32;;;3.90;;
24273;SDS011;12392;42.678;23.380;2023-07-30T01:44:06;7.82;;;3.58;;
24273;SDS011;12392;42.678;23.380;2023-07-30T01:46:32;6.13;;;3.00;;
24273;SDS011;12392;42.678;23.380;2023-07-30T01:48:58;8.45;;;2.92;;
24273;SDS011;12392;42.678;23.380;2023-07-30T01:51:23;7.13;;;3.00;;
24273;SDS011;12392;42.678;23.380;2023-07-30T01:53:49;7.82;;;3.20;;
24273;SDS011;12392;42.678;23.380;2023-07-30T01:56:15;3.95;;;3.20;;
24273;SDS011;12392;42.678;23.380;2023-07-30T01:58:40;9.20;;;2.88;;
24273;SDS011;12392;42.678;23.380;2023-07-30T02:01:06;5.90;;;2.78;;
24273;SDS011;12392;42.678;23.380;2023-07-30T02:03:32;5.22;;;2.88;;
24273;SDS011;12392;42.678;23.380;2023-07-30T02:05:57;5.85;;;2.85;;
24273;SDS011;12392;42.678;23.380;2023-07-30T02:08:23;5.07;;;2.90;;
24273;SDS011;12392;42.678;23.380;2023-07-30T02:10:55;11.48;;;2.40;;
24273;SDS011;12392;42.678;23.380;2023-07-30T02:13:22;6.43;;;2.67;;
24273;SDS011;12392;42.678;23.380;2023-07-30T02:15:48;5.95;;;2.70;;
24273;SDS011;12392;42.678;23.380;2023-07-30T02:18:13;6.25;;;3.00;;
24273;SDS011;12392;42.678;23.380;2023-07-30T02:20:39;3.58;;;2.85;;
24273;SDS011;12392;42.678;23.380;2023-07-30T02:23:05;6.63;;;2.90;;
24273;SDS011;12392;42.678;23.380;2023-07-30T02:25:30;3.53;;;2.60;;
24273;SDS011;12392;42.678;23.380;2023-07-30T02:27:56;3.45;;;2.42;;
24273;SDS011;12392;42.678;23.380;2023-07-30T02:30:24;4.68;;;3.05;;
24273;SDS011;12392;42.678;23.380;2023-07-30T02:32:49;6.80;;;2.45;;
24273;SDS011;12392;42.678;23.380;2023-07-30T02:35:15;5.03;;;3.05;;
24273;SDS011;12392;42.678;23.380;2023-07-30T02:37:41;7.45;;;2.55;;
24273;SDS011;12392;42.678;23.380;2023-07-30T02:40:06;3.75;;;2.88;;
24273;SDS011;12392;42.678;23.380;2023-07-30T02:42:33;4.03;;;2.67;;
24273;SDS011;12392;42.678;23.380;2023-07-30T02:44:58;5.28;;;2.97;;
24273;SDS011;12392;42.678;23.380;2023-07-30T02:47:24;5.68;;;3.30;;
24273;SDS011;12392;42.678;23.380;2023-07-30T02:49:50;7.75;;;2.60;;
24273;SDS011;12392;42.678;23.380;2023-07-30T02:52:15;7.10;;;2.92;;
24273;SDS011;12392;42.678;23.380;2023-07-30T02:54:41;2.78;;;2.42;;
24273;SDS011;12392;42.678;23.380;2023-07-30T02:57:07;6.25;;;3.03;;
24273;SDS011;12392;42.678;23.380;2023-07-30T02:59:32;6.15;;;3.70;;
24273;SDS011;12392;42.678;23.380;2023-07-30T03:02:02;8.65;;;4.18;;
24273;SDS011;12392;42.678;23.380;2023-07-30T03:04:30;12.23;;;6.00;;
24273;SDS011;12392;42.678;23.380;2023-07-30T03:06:56;11.98;;;6.03;;
24273;SDS011;12392;42.678;23.380;2023-07-30T03:09:21;8.93;;;5.38;;
24273;SDS011;12392;42.678;23.380;2023-07-30T03:11:47;5.50;;;4.60;;
24273;SDS011;12392;42.678;23.380;2023-07-30T03:14:14;9.07;;;4.15;;
24273;SDS011;12392;42.678;23.380;2023-07-30T03:16:40;6.00;;;4.13;;
24273;SDS011;12392;42.678;23.380;2023-07-30T03:19:06;5.75;;;3.88;;
24273;SDS011;12392;42.678;23.380;2023-07-30T03:21:31;7.07;;;4.00;;
24273;SDS011;12392;42.678;23.380;2023-07-30T03:23:57;10.23;;;3.53;;
24273;SDS011;12392;42.678;23.380;2023-07-30T03:26:23;10.43;;;3.90;;
24273;SDS011;12392;42.678;23.380;2023-07-30T03:28:48;6.15;;;3.75;;
24273;SDS011;12392;42.678;23.380;2023-07-30T03:31:14;8.80;;;3.88;;
24273;SDS011;12392;42.678;23.380;2023-07-30T03:33:40;7.65;;;3.65;;
24273;SDS011;12392;42.678;23.380;2023-07-30T03:36:09;7.20;;;3.63;;
24273;SDS011;12392;42.678;23.380;2023-07-30T03:38:35;7.82;;;3.58;;
24273;SDS011;12392;42.678;23.380;2023-07-30T03:41:01;10.32;;;3.65;;
24273;SDS011;12392;42.678;23.380;2023-07-30T03:43:27;8.25;;;4.75;;
24273;SDS011;12392;42.678;23.380;2023-07-30T03:45:53;12.30;;;5.47;;
24273;SDS011;12392;42.678;23.380;2023-07-30T03:48:18;6.90;;;5.22;;
24273;SDS011;12392;42.678;23.380;2023-07-30T03:50:44;5.88;;;4.60;;
24273;SDS011;12392;42.678;23.380;2023-07-30T03:53:10;8.10;;;4.32;;
24273;SDS011;12392;42.678;23.380;2023-07-30T03:55:35;17.60;;;5.13;;
24273;SDS011;12392;42.678;23.380;2023-07-30T03:58:01;6.95;;;4.93;;
24273;SDS011;12392;42.678;23.380;2023-07-30T04:00:27;13.80;;;6.63;;
24273;SDS011;12392;42.678;23.380;2023-07-30T04:02:54;10.02;;;6.97;;
24273;SDS011;12392;42.678;23.380;2023-07-30T04:05:19;12.45;;;7.78;;
24273;SDS011;12392;42.678;23.380;2023-07-30T04:07:45;7.10;;;5.13;;
24273;SDS011;12392;42.678;23.380;2023-07-30T04:10:11;6.68;;;4.47;;
24273;SDS011;12392;42.678;23.380;2023-07-30T04:12:36;7.18;;;4.45;;
24273;SDS011;12392;42.678;23.380;2023-07-30T04:15:02;7.95;;;3.97;;
24273;SDS011;12392;42.678;23.380;2023-07-30T04:17:28;10.77;;;4.22;;
24273;SDS011;12392;42.678;23.380;2023-07-30T04:19:54;8.55;;;4.32;;
24273;SDS011;12392;42.678;23.380;2023-07-30T04:22:20;4.90;;;3.70;;
24273;SDS011;12392;42.678;23.380;2023-07-30T04:24:45;4.47;;;3.30;;
24273;SDS011;12392;42.678;23.380;2023-07-30T04:27:11;3.50;;;3.10;;
24273;SDS011;12392;42.678;23.380;2023-07-30T04:29:37;3.40;;;2.80;;
24273;SDS011;12392;42.678;23.380;2023-07-30T04:32:03;3.85;;;3.03;;
24273;SDS011;12392;42.678;23.380;2023-07-30T04:34:29;4.53;;;3.08;;
24273;SDS011;12392;42.678;23.380;2023-07-30T04:36:54;5.65;;;3.10;;
24273;SDS011;12392;42.678;23.380;2023-07-30T04:39:20;6.95;;;3.50;;
24273;SDS011;12392;42.678;23.380;2023-07-30T04:41:45;4.57;;;3.63;;
24273;SDS011;12392;42.678;23.380;2023-07-30T04:44:11;6.97;;;4.07;;
24273;SDS011;12392;42.678;23.380;2023-07-30T04:46:37;6.30;;;3.33;;
24273;SDS011;12392;42.678;23.380;2023-07-30T04:49:03;11.00;;;3.33;;
24273;SDS011;12392;42.678;23.380;2023-07-30T04:51:29;4.95;;;3.65;;
24273;SDS011;12392;42.678;23.380;2023-07-30T04:53:55;3.97;;;3.38;;
24273;SDS011;12392;42.678;23.380;2023-07-30T04:56:20;4.50;;;3.80;;
24273;SDS011;12392;42.678;23.380;2023-07-30T04:58:46;7.30;;;4.32;;
24273;SDS011;12392;42.678;23.380;2023-07-30T05:01:12;8.10;;;4.15;;
24273;SDS011;12392;42.678;23.380;2023-07-30T05:03:37;6.68;;;3.97;;
24273;SDS011;12392;42.678;23.380;2023-07-30T05:06:03;6.55;;;4.22;;
24273;SDS011;12392;42.678;23.380;2023-07-30T05:08:29;8.70;;;4.10;;
24273;SDS011;12392;42.678;23.380;2023-07-30T05:10:54;12.45;;;4.10;;
24273;SDS011;12392;42.678;23.380;2023-07-30T05:13:20;7.85;;;3.75;;
24273;SDS011;12392;42.678;23.380;2023-07-30T05:15:45;6.68;;;4.30;;
24273;SDS011;12392;42.678;23.380;2023-07-30T05:18:11;6.30;;;4.88;;
24273;SDS011;12392;42.678;23.380;2023-07-30T05:20:38;5.20;;;4.60;;
24273;SDS011;12392;42.678;23.380;2023-07-30T05:23:04;7.22;;;4.90;;
24273;SDS011;12392;42.678;23.380;2023-07-30T05:25:31;8.82;;;5.32;;
24273;SDS011;12392;42.678;23.380;2023-07-30T05:27:57;12.95;;;6.15;;
24273;SDS011;12392;42.678;23.380;2023-07-30T05:30:23;14.38;;;6.80;;
24273;SDS011;12392;42.678;23.380;2023-07-30T05:32:49;16.17;;;5.85;;
24273;SDS011;12392;42.678;23.380;2023-07-30T05:35:14;8.48;;;5.53;;
24273;SDS011;12392;42.678;23.380;2023-07-30T05:37:40;12.02;;;5.68;;
24273;SDS011;12392;42.678;23.380;2023-07-30T05:40:06;9.23;;;4.28;;
24273;SDS011;12392;42.678;23.380;2023-07-30T05:42:32;7.72;;;4.43;;
24273;SDS011;12392;42.678;23.380;2023-07-30T05:44:58;4.82;;;3.83;;
24273;SDS011;12392;42.678;23.380;2023-07-30T05:47:23;8.13;;;3.90;;
24273;SDS011;12392;42.678;23.380;2023-07-30T05:49:49;13.98;;;4.22;;
24273;SDS011;12392;42.678;23.380;2023-07-30T05:52:15;15.80;;;4.72;;
24273;SDS011;12392;42.678;23.380;2023-07-30T05:54:40;14.68;;;4.30;;
24273;SDS011;12392;42.678;23.380;2023-07-30T05:57:06;7.03;;;4.30;;
24273;SDS011;12392;42.678;23.380;2023-07-30T05:59:32;8.63;;;4.30;;
24273;SDS011;12392;42.678;23.380;2023-07-30T06:02:01;9.50;;;4.70;;
24273;SDS011;12392;42.678;23.380;2023-07-30T06:04:27;13.45;;;4.95;;
24273;SDS011;12392;42.678;23.380;2023-07-30T06:06:53;7.80;;;3.92;;
24273;SDS011;12392;42.678;23.380;2023-07-30T06:09:19;5.75;;;4.20;;
24273;SDS011;12392;42.678;23.380;2023-07-30T06:11:45;6.05;;;4.25;;
24273;SDS011;12392;42.678;23.380;2023-07-30T06:14:10;7.60;;;3.97;;
24273;SDS011;12392;42.678;23.380;2023-07-30T06:16:36;5.47;;;4.07;;
24273;SDS011;12392;42.678;23.380;2023-07-30T06:19:02;6.63;;;3.80;;
24273;SDS011;12392;42.678;23.380;2023-07-30T06:21:27;4.38;;;3.25;;
24273;SDS011;12392;42.678;23.380;2023-07-30T06:23:54;5.20;;;3.95;;
24273;SDS011;12392;42.678;23.380;2023-07-30T06:26:19;14.20;;;3.97;;
24273;SDS011;12392;42.678;23.380;2023-07-30T06:28:45;7.20;;;3.63;;
24273;SDS011;12392;42.678;23.380;2023-07-30T06:31:11;6.82;;;3.70;;
24273;SDS011;12392;42.678;23.380;2023-07-30T06:33:36;5.43;;;3.72;;
24273;SDS011;12392;42.678;23.380;2023-07-30T06:36:03;6.30;;;3.65;;
24273;SDS011;12392;42.678;23.380;2023-07-30T06:38:29;6.85;;;3.88;;
24273;SDS011;12392;42.678;23.380;2023-07-30T06:40:54;5.65;;;3.75;;
24273;SDS011;12392;42.678;23.380;2023-07-30T06:43:22;8.95;;;3.97;;
24273;SDS011;12392;42.678;23.380;2023-07-30T06:45:48;7.07;;;4.00;;
24273;SDS011;12392;42.678;23.380;2023-07-30T06:48:14;7.75;;;4.07;;
24273;SDS011;12392;42.678;23.380;2023-07-30T06:50:42;9.00;;;3.95;;
24273;SDS011;12392;42.678;23.380;2023-07-30T06:53:08;16.25;;;4.57;;
24273;SDS011;12392;42.678;23.380;2023-07-30T06:55:34;15.55;;;4.40;;
24273;SDS011;12392;42.678;23.380;2023-07-30T06:58:00;16.42;;;4.15;;
24273;SDS011;12392;42.678;23.380;2023-07-30T07:00:25;8.02;;;3.80;;
24273;SDS011;12392;42.678;23.380;2023-07-30T07:02:51;7.43;;;3.92;;
24273;SDS011;12392;42.678;23.380;2023-07-30T07:05:16;6.57;;;3.70;;
24273;SDS011;12392;42.678;23.380;2023-07-30T07:07:42;9.10;;;4.13;;
24273;SDS011;12392;42.678;23.380;2023-07-30T07:10:08;7.18;;;4.10;;
24273;SDS011;12392;42.678;23.380;2023-07-30T07:12:35;9.07;;;4.07;;
24273;SDS011;12392;42.678;23.380;2023-07-30T07:15:04;7.63;;;3.90;;
24273;SDS011;12392;42.678;23.380;2023-07-30T07:17:30;9.25;;;3.35;;
24273;SDS011;12392;42.678;23.380;2023-07-30T07:19:57;6.18;;;3.55;;
24273;SDS011;12392;42.678;23.380;2023-07-30T07:22:22;6.97;;;4.43;;
24273;SDS011;12392;42.678;23.380;2023-07-30T07:24:48;5.95;;;3.20;;
24273;SDS011;12392;42.678;23.380;2023-07-30T07:27:17;5.35;;;3.50;;
24273;SDS011;12392;42.678;23.380;2023-07-30T07:29:43;5.82;;;3.97;;
24273;SDS011;12392;42.678;23.380;2023-07-30T07:32:08;10.05;;;3.75;;
24273;SDS011;12392;42.678;23.380;2023-07-30T07:34:34;6.70;;;3.63;;
24273;SDS011;12392;42.678;23.380;2023-07-30T07:37:00;3.83;;;3.33;;
24273;SDS011;12392;42.678;23.380;2023-07-30T07:39:27;5.57;;;3.45;;
24273;SDS011;12392;42.678;23.380;2023-07-30T07:41:52;5.82;;;3.65;;
24273;SDS011;12392;42.678;23.380;2023-07-30T07:44:18;7.80;;;3.85;;
24273;SDS011;12392;42.678;23.380;2023-07-30T07:46:44;9.02;;;3.40;;
24273;SDS011;12392;42.678;23.380;2023-07-30T07:49:09;10.68;;;3.67;;
24273;SDS011;12392;42.678;23.380;2023-07-30T07:51:35;9.40;;;4.00;;
24273;SDS011;12392;42.678;23.380;2023-07-30T07:54:01;9.05;;;3.60;;
24273;SDS011;12392;42.678;23.380;2023-07-30T07:56:26;9.18;;;4.18;;
24273;SDS011;12392;42.678;23.380;2023-07-30T07:58:52;9.18;;;3.88;;
24273;SDS011;12392;42.678;23.380;2023-07-30T08:01:18;7.25;;;3.65;;
24273;SDS011;12392;42.678;23.380;2023-07-30T08:03:43;7.95;;;3.75;;
24273;SDS011;12392;42.678;23.380;2023-07-30T08:06:09;6.80;;;3.92;;
24273;SDS011;12392;42.678;23.380;2023-07-30T08:08:35;6.40;;;3.40;;
24273;SDS011;12392;42.678;23.380;2023-07-30T08:11:07;14.65;;;3.90;;
24273;SDS011;12392;42.678;23.380;2023-07-30T08:13:34;14.15;;;3.78;;
24273;SDS011;12392;42.678;23.380;2023-07-30T08:16:00;13.18;;;3.90;;
24273;SDS011;12392;42.678;23.380;2023-07-30T08:18:26;7.68;;;3.65;;
24273;SDS011;12392;42.678;23.380;2023-07-30T08:20:52;11.48;;;3.38;;
24273;SDS011;12392;42.678;23.380;2023-07-30T08:23:18;6.28;;;3.55;;
24273;SDS011;12392;42.678;23.380;2023-07-30T08:25:44;8.55;;;3.40;;
24273;SDS011;12392;42.678;23.380;2023-07-30T08:28:10;4.10;;;3.38;;
24273;SDS011;12392;42.678;23.380;2023-07-30T08:30:35;11.00;;;3.65;;
24273;SDS011;12392;42.678;23.380;2023-07-30T08:33:01;10.57;;;3.40;;
24273;SDS011;12392;42.678;23.380;2023-07-30T08:35:27;6.60;;;3.60;;
24273;SDS011;12392;42.678;23.380;2023-07-30T08:37:54;4.07;;;3.38;;
24273;SDS011;12392;42.678;23.380;2023-07-30T08:40:22;7.45;;;2.97;;
24273;SDS011;12392;42.678;23.380;2023-07-30T08:42:49;11.63;;;3.38;;
24273;SDS011;12392;42.678;23.380;2023-07-30T08:45:16;9.20;;;3.63;;
24273;SDS011;12392;42.678;23.380;2023-07-30T08:47:42;7.85;;;3.42;;
24273;SDS011;12392;42.678;23.380;2023-07-30T08:50:07;14.23;;;3.55;;
24273;SDS011;12392;42.678;23.380;2023-07-30T08:52:33;7.07;;;3.67;;
24273;SDS011;12392;42.678;23.380;2023-07-30T08:55:01;13.38;;;3.45;;
24273;SDS011;12392;42.678;23.380;2023-07-30T08:57:28;15.63;;;3.60;;
24273;SDS011;12392;42.678;23.380;2023-07-30T08:59:54;7.05;;;3.72;;
24273;SDS011;12392;42.678;23.380;2023-07-30T09:02:31;6.55;;;3.72;;
24273;SDS011;12392;42.678;23.380;2023-07-30T09:05:04;9.85;;;4.10;;
24273;SDS011;12392;42.678;23.380;2023-07-30T09:07:31;9.05;;;3.28;;
24273;SDS011;12392;42.678;23.380;2023-07-30T09:09:57;7.88;;;3.08;;
24273;SDS011;12392;42.678;23.380;2023-07-30T09:12:28;7.30;;;3.65;;
24273;SDS011;12392;42.678;23.380;2023-07-30T09:14:57;7.13;;;3.78;;
24273;SDS011;12392;42.678;23.380;2023-07-30T09:17:23;10.63;;;4.07;;
24273;SDS011;12392;42.678;23.380;2023-07-30T09:19:50;7.57;;;3.33;;
24273;SDS011;12392;42.678;23.380;2023-07-30T09:22:20;5.75;;;3.50;;
24273;SDS011;12392;42.678;23.380;2023-07-30T09:24:49;10.45;;;3.78;;
24273;SDS011;12392;42.678;23.380;2023-07-30T09:27:19;7.18;;;3.45;;
24273;SDS011;12392;42.678;23.380;2023-07-30T09:29:55;10.25;;;3.42;;
24273;SDS011;12392;42.678;23.380;2023-07-30T09:32:27;7.63;;;3.63;;
24273;SDS011;12392;42.678;23.380;2023-07-30T09:34:54;3.60;;;2.88;;
24273;SDS011;12392;42.678;23.380;2023-07-30T09:37:20;3.88;;;3.10;;
24273;SDS011;12392;42.678;23.380;2023-07-30T09:39:47;9.10;;;3.38;;
24273;SDS011;12392;42.678;23.380;2023-07-30T09:42:13;6.78;;;2.78;;
24273;SDS011;12392;42.678;23.380;2023-07-30T09:44:39;5.30;;;2.83;;
24273;SDS011;12392;42.678;23.380;2023-07-30T09:47:05;3.80;;;2.80;;
24273;SDS011;12392;42.678;23.380;2023-07-30T09:49:35;5.72;;;3.20;;
24273;SDS011;12392;42.678;23.380;2023-07-30T09:52:02;4.22;;;3.30;;
24273;SDS011;12392;42.678;23.380;2023-07-30T09:54:28;7.13;;;3.40;;
24273;SDS011;12392;42.678;23.380;2023-07-30T09:56:54;3.65;;;2.90;;
24273;SDS011;12392;42.678;23.380;2023-07-30T09:59:20;3.28;;;2.97;;
24273;SDS011;12392;42.678;23.380;2023-07-30T10:01:47;3.70;;;3.10;;
24273;SDS011;12392;42.678;23.380;2023-07-30T10:04:14;3.88;;;3.25;;
24273;SDS011;12392;42.678;23.380;2023-07-30T10:06:46;4.82;;;3.70;;
24273;SDS011;12392;42.678;23.380;2023-07-30T10:09:19;3.28;;;2.97;;
24273;SDS011;12392;42.678;23.380;2023-07-30T10:11:45;4.28;;;3.38;;
24273;SDS011;12392;42.678;23.380;2023-07-30T10:14:12;6.43;;;3.20;;
24273;SDS011;12392;42.678;23.380;2023-07-30T10:16:38;13.57;;;4.35;;
24273;SDS011;12392;42.678;23.380;2023-07-30T10:19:04;8.05;;;3.35;;
24273;SDS011;12392;42.678;23.380;2023-07-30T10:21:31;5.40;;;3.67;;
24273;SDS011;12392;42.678;23.380;2023-07-30T10:24:01;9.48;;;3.78;;
24273;SDS011;12392;42.678;23.380;2023-07-30T10:26:28;5.50;;;3.63;;
24273;SDS011;12392;42.678;23.380;2023-07-30T10:31:45;12.50;;;3.72;;
24273;SDS011;12392;42.678;23.380;2023-07-30T10:34:14;7.70;;;3.70;;
24273;SDS011;12392;42.678;23.380;2023-07-30T10:36:41;7.40;;;3.60;;
24273;SDS011;12392;42.678;23.380;2023-07-30T10:39:12;5.35;;;3.60;;
24273;SDS011;12392;42.678;23.380;2023-07-30T10:41:43;4.18;;;3.78;;
24273;SDS011;12392;42.678;23.380;2023-07-30T10:44:17;4.95;;;3.45;;
24273;SDS011;12392;42.678;23.380;2023-07-30T10:46:53;3.70;;;3.10;;
24273;SDS011;12392;42.678;23.380;2023-07-30T10:49:20;9.20;;;3.42;;
24273;SDS011;12392;42.678;23.380;2023-07-30T10:51:46;4.63;;;3.90;;
24273;SDS011;12392;42.678;23.380;2023-07-30T10:54:12;4.85;;;3.50;;
24273;SDS011;12392;42.678;23.380;2023-07-30T10:56:38;5.70;;;3.35;;
24273;SDS011;12392;42.678;23.380;2023-07-30T10:59:05;5.88;;;3.38;;
24273;SDS011;12392;42.678;23.380;2023-07-30T11:01:35;5.50;;;3.20;;
24273;SDS011;12392;42.678;23.380;2023-07-30T11:04:06;6.57;;;3.40;;
24273;SDS011;12392;42.678;23.380;2023-07-30T11:06:35;7.25;;;3.75;;
24273;SDS011;12392;42.678;23.380;2023-07-30T11:09:01;5.25;;;3.50;;
24273;SDS011;12392;42.678;23.380;2023-07-30T11:11:27;8.93;;;3.92;;
24273;SDS011;12392;42.678;23.380;2023-07-30T11:13:53;8.98;;;3.78;;
24273;SDS011;12392;42.678;23.380;2023-07-30T11:16:19;10.32;;;3.72;;
24273;SDS011;12392;42.678;23.380;2023-07-30T11:18:45;5.50;;;3.65;;
24273;SDS011;12392;42.678;23.380;2023-07-30T11:21:16;6.43;;;3.50;;
24273;SDS011;12392;42.678;23.380;2023-07-30T11:23:44;6.40;;;3.50;;
24273;SDS011;12392;42.678;23.380;2023-07-30T11:26:15;8.68;;;3.70;;
24273;SDS011;12392;42.678;23.380;2023-07-30T11:28:42;5.88;;;3.45;;
24273;SDS011;12392;42.678;23.380;2023-07-30T11:33:44;4.20;;;3.70;;
24273;SDS011;12392;42.678;23.380;2023-07-30T11:36:14;6.60;;;3.95;;
24273;SDS011;12392;42.678;23.380;2023-07-30T11:38:41;6.13;;;3.80;;
24273;SDS011;12392;42.678;23.380;2023-07-30T11:41:07;5.68;;;3.60;;
24273;SDS011;12392;42.678;23.380;2023-07-30T11:43:35;9.52;;;3.53;;
24273;SDS011;12392;42.678;23.380;2023-07-30T11:46:09;7.20;;;4.00;;
24273;SDS011;12392;42.678;23.380;2023-07-30T11:48:45;5.72;;;3.30;;
24273;SDS011;12392;42.678;23.380;2023-07-30T11:51:45;6.65;;;4.07;;
24273;SDS011;12392;42.678;23.380;2023-07-30T11:54:03;4.00;;;3.60;;
24273;SDS011;12392;42.678;23.380;2023-07-30T11:56:30;6.30;;;4.30;;
24273;SDS011;12392;42.678;23.380;2023-07-30T11:59:06;9.32;;;4.53;;
24273;SDS011;12392;42.678;23.380;2023-07-30T12:01:33;7.53;;;3.90;;
24273;SDS011;12392;42.678;23.380;2023-07-30T12:04:00;5.43;;;3.85;;
24273;SDS011;12392;42.678;23.380;2023-07-30T12:06:40;5.13;;;3.97;;
24273;SDS011;12392;42.678;23.380;2023-07-30T12:14:21;7.00;;;3.90;;
24273;SDS011;12392;42.678;23.380;2023-07-30T12:16:50;5.70;;;3.83;;
24273;SDS011;12392;42.678;23.380;2023-07-30T12:19:16;10.95;;;4.13;;
24273;SDS011;12392;42.678;23.380;2023-07-30T12:21:42;5.10;;;3.88;;
24273;SDS011;12392;42.678;23.380;2023-07-30T12:24:07;8.20;;;4.10;;
24273;SDS011;12392;42.678;23.380;2023-07-30T12:26:33;5.78;;;4.00;;
24273;SDS011;12392;42.678;23.380;2023-07-30T12:28:59;6.38;;;4.18;;
24273;SDS011;12392;42.678;23.380;2023-07-30T12:31:24;7.93;;;3.85;;
24273;SDS011;12392;42.678;23.380;2023-07-30T12:33:50;4.30;;;3.90;;
24273;SDS011;12392;42.678;23.380;2023-07-30T12:36:16;5.72;;;3.70;;
24273;SDS011;12392;42.678;23.380;2023-07-30T12:38:41;4.68;;;4.18;;
24273;SDS011;12392;42.678;23.380;2023-07-30T12:41:07;4.65;;;3.92;;
24273;SDS011;12392;42.678;23.380;2023-07-30T12:43:33;7.32;;;4.30;;
24273;SDS011;12392;42.678;23.380;2023-07-30T12:45:58;7.10;;;3.72;;
24273;SDS011;12392;42.678;23.380;2023-07-30T12:48:24;6.32;;;3.78;;
24273;SDS011;12392;42.678;23.380;2023-07-30T12:50:50;5.85;;;3.90;;
24273;SDS011;12392;42.678;23.380;2023-07-30T12:53:16;8.60;;;4.05;;
24273;SDS011;12392;42.678;23.380;2023-07-30T12:55:41;8.07;;;4.00;;
24273;SDS011;12392;42.678;23.380;2023-07-30T12:58:07;5.68;;;4.30;;
24273;SDS011;12392;42.678;23.380;2023-07-30T13:00:35;4.55;;;4.10;;
24273;SDS011;12392;42.678;23.380;2023-07-30T13:03:04;8.50;;;4.20;;
24273;SDS011;12392;42.678;23.380;2023-07-30T13:05:29;7.78;;;4.07;;
24273;SDS011;12392;42.678;23.380;2023-07-30T13:07:55;9.15;;;4.50;;
24273;SDS011;12392;42.678;23.380;2023-07-30T13:10:21;8.25;;;3.70;;
24273;SDS011;12392;42.678;23.380;2023-07-30T13:12:47;11.38;;;4.20;;
24273;SDS011;12392;42.678;23.380;2023-07-30T13:15:12;8.77;;;4.22;;
24273;SDS011;12392;42.678;23.380;2023-07-30T13:17:38;6.43;;;3.97;;
24273;SDS011;12392;42.678;23.380;2023-07-30T13:20:04;7.18;;;3.95;;
24273;SDS011;12392;42.678;23.380;2023-07-30T13:22:30;6.30;;;4.45;;
24273;SDS011;12392;42.678;23.380;2023-07-30T13:24:56;10.50;;;4.40;;
24273;SDS011;12392;42.678;23.380;2023-07-30T13:27:22;6.38;;;3.88;;
24273;SDS011;12392;42.678;23.380;2023-07-30T13:29:48;4.50;;;4.07;;
24273;SDS011;12392;42.678;23.380;2023-07-30T13:32:14;5.28;;;4.18;;
24273;SDS011;12392;42.678;23.380;2023-07-30T13:34:40;6.22;;;3.85;;
24273;SDS011;12392;42.678;23.380;2023-07-30T13:37:06;7.47;;;4.40;;
24273;SDS011;12392;42.678;23.380;2023-07-30T13:39:31;9.32;;;4.40;;
24273;SDS011;12392;42.678;23.380;2023-07-30T13:41:57;6.25;;;3.90;;
24273;SDS011;12392;42.678;23.380;2023-07-30T13:44:23;5.68;;;3.95;;
24273;SDS011;12392;42.678;23.380;2023-07-30T13:46:48;5.07;;;3.90;;
24273;SDS011;12392;42.678;23.380;2023-07-30T13:49:15;7.30;;;4.22;;
24273;SDS011;12392;42.678;23.380;2023-07-30T13:51:41;10.63;;;3.72;;
24273;SDS011;12392;42.678;23.380;2023-07-30T13:54:06;5.68;;;4.20;;
24273;SDS011;12392;42.678;23.380;2023-07-30T13:56:33;7.97;;;4.47;;
24273;SDS011;12392;42.678;23.380;2023-07-30T14:01:30;11.90;;;4.45;;
24273;SDS011;12392;42.678;23.380;2023-07-30T14:03:56;7.20;;;4.10;;
24273;SDS011;12392;42.678;23.380;2023-07-30T14:06:22;6.40;;;4.70;;
24273;SDS011;12392;42.678;23.380;2023-07-30T14:08:48;5.80;;;4.45;;
24273;SDS011;12392;42.678;23.380;2023-07-30T14:11:14;6.32;;;4.75;;
24273;SDS011;12392;42.678;23.380;2023-07-30T14:13:40;6.53;;;4.70;;
24273;SDS011;12392;42.678;23.380;2023-07-30T14:16:05;6.10;;;4.65;;
24273;SDS011;12392;42.678;23.380;2023-07-30T14:18:32;5.03;;;4.22;;
24273;SDS011;12392;42.678;23.380;2023-07-30T14:20:58;6.65;;;4.38;;
24273;SDS011;12392;42.678;23.380;2023-07-30T14:23:24;9.07;;;4.75;;
24273;SDS011;12392;42.678;23.380;2023-07-30T14:25:49;7.45;;;4.47;;
24273;SDS011;12392;42.678;23.380;2023-07-30T14:28:15;8.65;;;4.45;;
24273;SDS011;12392;42.678;23.380;2023-07-30T14:30:41;5.75;;;4.03;;
24273;SDS011;12392;42.678;23.380;2023-07-30T14:33:09;5.35;;;3.80;;
24273;SDS011;12392;42.678;23.380;2023-07-30T14:35:35;7.25;;;4.20;;
24273;SDS011;12392;42.678;23.380;2023-07-30T14:38:03;7.60;;;4.07;;
24273;SDS011;12392;42.678;23.380;2023-07-30T14:40:29;4.40;;;3.97;;
24273;SDS011;12392;42.678;23.380;2023-07-30T14:42:55;5.15;;;4.32;;
24273;SDS011;12392;42.678;23.380;2023-07-30T14:45:21;5.97;;;4.18;;